Tucumcari, NM (88401)

8:18 PM MDT on September 02, 2014 (GMT -0600)
Tucumcari Municipal | Change Station
CLOSE
Current Station
Airport
Location: Tucumcari,
Elevation: 4065 ft
Nearby Weather Stations

Elev 4065 ft 35.18 °N, 103.60 °W | Updated 25 minutes ago

Clear
Clear
85 °F
Feels Like 83 °F
N
0
Wind Variable Wind from North

Today
High -- | Low -- °F
--% Chance of Precip.
Yesterday
High -- | Low -- °F
Precip. -- in
6:28 AM 7:20 PM
First Quarter, 57% visible
Pressure 29.74 in
Visibility 10.0 miles
Clouds Clear
Heat Index 83 °F
Dew Point 54 °F
Humidity 34%
Rainfall 0.00 in
Snow Depth Not available.
UV 0 out of 12
Pollen 10.40 out of 12
Air Quality Not available.
Flu Activity Not available.
METAR KTCC 030153Z AUTO 00000KT 10SM CLR 29/12 A2994 RMK AO2 SLP070 T02940122

More Conditions Fewer Conditions

Pressure 29.74 in
Visibility 10.0 miles
Clouds Clear
Heat Index 83 °F
Dew Point 54 °F
Humidity 34%
Rainfall 0.00 in
Snow Depth Not available.
UV 0 out of 12
Pollen 10.40 out of 12
Air Quality Not available.
Flu Activity Not available.
METAR KTCC 030153Z AUTO 00000KT 10SM CLR 29/12 A2994 RMK AO2 SLP070 T02940122

More Conditions Fewer Conditions

10-Day Weather Forecast

Almanac

Astronomy

Sep. 02, 2014 Rise Set
Actual Time 6:28 AM MDT 7:20 PM MDT
Civil Twilight 6:02 AM MDT 7:46 PM MDT
Nautical Twilight 5:31 AM MDT 8:16 PM MDT
Astronomical Twilight 5:00 AM MDT 8:47 PM MDT
Moon 1:58 PM MDT (9/2) No Moon Set
Length of Visible Light 13h 43m
Length of Day
12h 52m
Tomorrow will be 2m 7s shorter.
First Quarter, 57% of the Moon is Illuminated
Today
First Quarter
Sep 8
Full
Sep 15
Last Quarter
Sep 24
New
Oct 1
First Quarter

Today's Extremes

State Highs State Lows

Community

WunderPhotos

Upload Photos

1,749,841 photos uploaded!

Nearby

Snow Depth

Station Depth Elevation
Wesner Springs 1 in 11120 ft
Tolby 0 in 10180 ft
Santa Fe 0 in 11445 ft
Gallegos Peak 0 in 9800 ft
Red River Pass #2 0 in 9850 ft

Earthquake Activity

City Distance Mag. Time & Date
Trinidad, Colorado 147 miles 2.7 4:20 AM MDT
2014-08-31
Minimum magnitude displayed is 2.5.

Coastal Water Temperatures

Place Temperature
No Stations Reporting

Nearby Weather Stations